Terminal Aerodrome Forecast
Issued by NWS Topeka, KS

Home | Current Version | Previous Version | Text Only | Print | Product List | Glossary Off
Versions: 1 2 3 4 5 6 7 8 9 10 11 12 13 14

404
FTUS43 KTOP 062322
TAFTOP
TAF
KTOP 062322Z 0700/0724 30003KT P6SM BKN150
     FM071500 35007KT P6SM OVC040
      TEMPO 0717/0721 6SM -SN OVC025=

USA.gov is the U.S. government's official web portal to all federal, state and local government web resources and services.